Time;durP1;ratioP1;P1;durP2;ratioP2;P2;SDS_P1;SDS_P2;PMS_P1;PMS_P2;Temp;Humidity;BMP_temperature;BMP_pressure;BME280_temperature;BME280_humidity;BME280_pressure;Samples;Min_cycle;Max_cycle;Signal;HPM_P1;HPM_P2
2022/07/10 00:00:17;;;;;;;0.70;0.70;;;;;;;;;;10261395;28;20039;-50
2022/07/10 00:05:39;;;;;;;0.80;0.80;;;;;;;;;;10272008;28;20473;-50
2022/07/10 00:10:58;;;;;;;1.05;1.00;;;;;;;;;;10260704;28;20057;-49
2022/07/10 00:16:17;;;;;;;0.85;0.80;;;;;;;;;;10236967;29;20062;-49
2022/07/10 00:21:36;;;;;;;0.95;0.80;;;;;;;;;;10254700;28;20066;-49
2022/07/10 00:26:56;;;;;;;0.80;0.80;;;;;;;;;;10253617;28;20106;-49
2022/07/10 00:32:15;;;;;;;0.70;0.70;;;;;;;;;;10247378;28;20040;-49
2022/07/10 00:37:36;;;;;;;0.80;0.80;;;;;;;;;;10245971;29;20043;-49
2022/07/10 00:42:55;;;;;;;0.70;0.70;;;;;;;;;;10247248;28;20086;-50
2022/07/10 00:48:14;;;;;;;2.00;0.90;;;;;;;;;;10247791;28;20043;-49
2022/07/10 00:53:33;;;;;;;1.23;0.80;;;;;;;;;;10239686;28;20180;-49
2022/07/10 00:58:53;;;;;;;0.70;0.70;;;;;;;;;;10247574;29;20055;-49
2022/07/10 01:04:12;;;;;;;1.00;0.90;;;;;;;;;;10268796;28;20414;-50
2022/07/10 01:09:32;;;;;;;1.30;0.85;;;;;;;;;;10248170;28;20043;-49
2022/07/10 01:14:51;;;;;;;0.95;0.82;;;;;;;;;;10257529;28;20051;-49
2022/07/10 01:20:10;;;;;;;1.15;0.77;;;;;;;;;;10254557;29;20063;-49
2022/07/10 01:25:30;;;;;;;0.90;0.90;;;;;;;;;;10263067;28;20051;-49
2022/07/10 01:30:49;;;;;;;0.75;0.75;;;;;;;;;;10254359;29;20059;-50
2022/07/10 01:36:08;;;;;;;0.93;0.85;;;;;;;;;;10249739;28;20062;-49
2022/07/10 01:41:28;;;;;;;0.85;0.85;;;;;;;;;;10254245;28;20066;-49
2022/07/10 01:46:48;;;;;;;0.95;0.90;;;;;;;;;;10241365;28;20495;-49
2022/07/10 01:52:09;;;;;;;0.70;0.63;;;;;;;;;;10254784;28;20043;-50
2022/07/10 01:57:29;;;;;;;1.27;0.80;;;;;;;;;;10255522;28;20539;-51
2022/07/10 02:04:40;;;;;;;0.70;0.68;;;;;;;;;;10254678;28;20047;-49
2022/07/10 02:08:27;;;;;;;1.10;1.00;;;;;;;;;;10253288;28;20059;-49
2022/07/10 02:13:47;;;;;;;0.88;0.80;;;;;;;;;;10253349;28;20593;-49
2022/07/10 02:19:06;;;;;;;2.95;1.15;;;;;;;;;;10252961;28;20415;-49
2022/07/10 02:24:25;;;;;;;0.70;0.70;;;;;;;;;;10259853;28;20183;-49
2022/07/10 02:29:45;;;;;;;0.90;0.82;;;;;;;;;;10252267;28;20055;-49
2022/07/10 02:35:04;;;;;;;0.80;0.80;;;;;;;;;;10251207;28;20051;-49
2022/07/10 02:40:24;;;;;;;0.95;0.85;;;;;;;;;;10264754;28;20047;-50
2022/07/10 02:45:43;;;;;;;1.00;0.82;;;;;;;;;;10240226;29;20415;-50
2022/07/10 02:51:02;;;;;;;1.70;0.70;;;;;;;;;;10251388;29;20051;-49
2022/07/10 02:56:21;;;;;;;1.15;0.90;;;;;;;;;;10253414;28;20114;-50
2022/07/10 03:01:41;;;;;;;1.13;0.70;;;;;;;;;;10251215;28;20059;-51
2022/07/10 03:07:00;;;;;;;0.80;0.80;;;;;;;;;;10249097;28;20055;-49
2022/07/10 03:12:19;;;;;;;0.80;0.80;;;;;;;;;;10240212;28;20047;-49
2022/07/10 03:17:39;;;;;;;1.30;0.98;;;;;;;;;;10239497;29;20130;-49
2022/07/10 03:22:59;;;;;;;1.08;0.90;;;;;;;;;;10258089;28;20047;-50
2022/07/10 03:28:18;;;;;;;0.85;0.80;;;;;;;;;;10249462;28;20529;-49
2022/07/10 03:33:38;;;;;;;0.80;0.80;;;;;;;;;;10249541;28;20051;-49
2022/07/10 03:38:57;;;;;;;0.93;0.70;;;;;;;;;;10249412;28;20050;-49
2022/07/10 03:44:17;;;;;;;1.83;1.00;;;;;;;;;;10249203;29;20051;-49
2022/07/10 03:49:38;;;;;;;1.73;0.70;;;;;;;;;;10257824;28;20047;-49
2022/07/10 03:54:57;;;;;;;0.70;0.70;;;;;;;;;;10248980;28;20067;-50
2022/07/10 04:00:17;;;;;;;0.80;0.80;;;;;;;;;;10237479;28;20062;-49
2022/07/10 04:05:36;;;;;;;0.70;0.70;;;;;;;;;;10248529;28;20055;-49
2022/07/10 04:10:55;;;;;;;0.60;0.60;;;;;;;;;;10248637;29;20055;-49
2022/07/10 04:16:14;;;;;;;0.70;0.70;;;;;;;;;;10261581;28;20415;-49
2022/07/10 04:21:34;;;;;;;1.02;0.70;;;;;;;;;;10249027;28;20047;-49
2022/07/10 04:26:53;;;;;;;0.70;0.70;;;;;;;;;;10255612;28;20062;-50
2022/07/10 04:32:12;;;;;;;0.82;0.70;;;;;;;;;;10247813;29;20123;-49
2022/07/10 04:37:34;;;;;;;0.70;0.70;;;;;;;;;;10246384;29;20055;-49
2022/07/10 04:42:53;;;;;;;0.93;0.60;;;;;;;;;;10260265;28;20050;-49
2022/07/10 04:48:13;;;;;;;1.27;0.63;;;;;;;;;;10259628;28;20397;-49
2022/07/10 04:53:32;;;;;;;2.20;0.70;;;;;;;;;;10247557;28;20051;-49
2022/07/10 04:58:51;;;;;;;1.60;0.68;;;;;;;;;;10247521;29;20055;-49
2022/07/10 05:04:10;;;;;;;0.70;0.70;;;;;;;;;;10235867;28;20059;-49
2022/07/10 05:09:30;;;;;;;0.80;0.77;;;;;;;;;;10260292;28;20043;-50
2022/07/10 05:14:49;;;;;;;1.02;0.60;;;;;;;;;;10247539;28;20055;-50
2022/07/10 05:20:09;;;;;;;1.40;0.65;;;;;;;;;;10246723;28;20522;-49
2022/07/10 05:25:30;;;;;;;2.17;0.70;;;;;;;;;;10251457;28;20055;-49
2022/07/10 05:30:49;;;;;;;0.70;0.63;;;;;;;;;;10260094;28;20050;-49
2022/07/10 05:36:09;;;;;;;1.10;0.77;;;;;;;;;;10246077;29;20057;-49
2022/07/10 05:41:28;;;;;;;1.10;0.85;;;;;;;;;;10247223;29;20074;-49
2022/07/10 05:46:47;;;;;;;0.88;0.65;;;;;;;;;;10245888;29;20054;-49
2022/07/10 05:52:06;;;;;;;0.82;0.68;;;;;;;;;;10246392;28;20562;-49
2022/07/10 05:57:26;;;;;;;0.70;0.70;;;;;;;;;;10249978;28;20070;-49
2022/07/10 06:02:45;;;;;;;1.50;0.60;;;;;;;;;;10269838;28;20125;-50
2022/07/10 06:08:04;;;;;;;0.82;0.57;;;;;;;;;;10253686;28;20058;-50
2022/07/10 06:13:23;;;;;;;1.02;0.52;;;;;;;;;;10253421;29;20051;-49
2022/07/10 06:18:43;;;;;;;1.08;0.70;;;;;;;;;;10252776;28;20047;-50
2022/07/10 06:24:02;;;;;;;0.90;0.60;;;;;;;;;;10261741;28;20117;-50
2022/07/10 06:29:21;;;;;;;0.88;0.60;;;;;;;;;;10252682;28;20051;-49
2022/07/10 06:34:40;;;;;;;1.50;0.60;;;;;;;;;;10251579;28;20066;-51
2022/07/10 06:39:59;;;;;;;0.70;0.60;;;;;;;;;;10251910;28;20508;-49
2022/07/10 06:45:19;;;;;;;0.88;0.60;;;;;;;;;;10250414;28;20051;-50
2022/07/10 06:50:38;;;;;;;0.80;0.60;;;;;;;;;;10264892;28;20054;-49
2022/07/10 06:55:57;;;;;;;0.95;0.60;;;;;;;;;;10257760;28;20079;-49
2022/07/10 07:01:17;;;;;;;1.02;0.68;;;;;;;;;;10251650;28;20074;-50
2022/07/10 07:06:36;;;;;;;2.05;0.80;;;;;;;;;;10264048;28;20406;-49
2022/07/10 07:11:56;;;;;;;1.10;0.50;;;;;;;;;;10263227;28;20043;-49
2022/07/10 07:17:21;;;;;;;0.55;0.50;;;;;;;;;;10250658;28;20043;-49
2022/07/10 07:28:19;;;;;;;1.17;0.50;;;;;;;;;;10243477;28;20102;-49
2022/07/10 07:33:38;;;;;;;0.95;0.60;;;;;;;;;;10249964;28;20133;-50
2022/07/10 07:38:58;;;;;;;0.98;0.60;;;;;;;;;;10248892;28;20066;-49
2022/07/10 07:44:17;;;;;;;1.60;0.50;;;;;;;;;;10247806;28;20051;-49
2022/07/10 07:49:36;;;;;;;0.80;0.50;;;;;;;;;;10238507;28;20051;-49
2022/07/10 07:54:57;;;;;;;0.57;0.57;;;;;;;;;;10248877;28;20155;-49
2022/07/10 08:00:22;;;;;;;0.75;0.60;;;;;;;;;;10261957;28;20046;-50
2022/07/10 08:05:41;;;;;;;0.80;0.60;;;;;;;;;;10262042;28;20113;-49
2022/07/10 08:11:00;;;;;;;1.25;0.70;;;;;;;;;;10248596;28;20054;-49
2022/07/10 08:16:19;;;;;;;1.50;0.60;;;;;;;;;;10248981;28;20043;-50
2022/07/10 08:21:39;;;;;;;1.30;0.60;;;;;;;;;;10260633;28;20054;-49
2022/07/10 08:26:59;;;;;;;0.75;0.50;;;;;;;;;;10246935;28;20527;-50
2022/07/10 08:32:19;;;;;;;1.05;0.70;;;;;;;;;;10248372;28;20047;-49
2022/07/10 08:37:39;;;;;;;0.65;0.50;;;;;;;;;;10246647;28;20059;-49
2022/07/10 08:42:58;;;;;;;0.88;0.60;;;;;;;;;;10243370;28;20055;-50
2022/07/10 08:48:21;;;;;;;1.00;0.50;;;;;;;;;;10248090;28;20074;-49
2022/07/10 08:53:40;;;;;;;1.10;0.60;;;;;;;;;;10247722;28;20059;-49
2022/07/10 08:59:02;;;;;;;0.88;0.50;;;;;;;;;;10247118;29;20067;-49
2022/07/10 09:04:23;;;;;;;0.40;0.40;;;;;;;;;;10247277;28;20048;-49
2022/07/10 09:09:55;;;;;;;0.77;0.60;;;;;;;;;;10247254;28;20051;-50
2022/07/10 09:15:16;;;;;;;0.73;0.63;;;;;;;;;;10247538;28;20059;-51
2022/07/10 09:20:37;;;;;;;0.60;0.50;;;;;;;;;;10247214;28;20055;-49
2022/07/10 09:25:56;;;;;;;0.82;0.60;;;;;;;;;;10246861;28;20056;-50
2022/07/10 09:31:15;;;;;;;1.17;0.63;;;;;;;;;;10246555;28;20062;-50
2022/07/10 09:36:35;;;;;;;0.68;0.43;;;;;;;;;;10242029;29;20055;-49
2022/07/10 09:41:54;;;;;;;0.82;0.47;;;;;;;;;;10254764;28;20082;-50
2022/07/10 09:47:23;;;;;;;0.43;0.43;;;;;;;;;;10253923;28;20392;-49
2022/07/10 09:52:42;;;;;;;0.75;0.47;;;;;;;;;;10266661;28;20055;-49
2022/07/10 09:58:06;;;;;;;0.88;0.60;;;;;;;;;;10254095;28;20059;-50
2022/07/10 10:03:26;;;;;;;0.50;0.50;;;;;;;;;;10261635;28;20048;-49
2022/07/10 10:08:49;;;;;;;0.75;0.50;;;;;;;;;;10253521;28;20086;-49
2022/07/10 10:14:08;;;;;;;0.50;0.50;;;;;;;;;;10253254;28;20066;-51
2022/07/10 10:25:09;;;;;;;0.50;0.50;;;;;;;;;;10265594;28;20047;-49
2022/07/10 10:30:29;;;;;;;0.70;0.60;;;;;;;;;;10252983;29;20074;-49
2022/07/10 10:35:49;;;;;;;0.63;0.60;;;;;;;;;;10250636;28;20059;-49
2022/07/10 10:41:24;;;;;;;0.50;0.50;;;;;;;;;;10252516;28;20055;-51
2022/07/10 10:46:50;;;;;;;0.40;0.40;;;;;;;;;;10246390;28;20516;-49
2022/07/10 10:52:10;;;;;;;0.50;0.45;;;;;;;;;;10239957;28;20062;-49
2022/07/10 10:57:32;;;;;;;0.50;0.50;;;;;;;;;;10250800;28;20408;-50
2022/07/10 11:03:11;;;;;;;0.65;0.50;;;;;;;;;;10251085;29;20055;-49
2022/07/10 11:08:30;;;;;;;;;;;;;;;;;;10264281;28;20047;-49
2022/07/10 11:13:49;;;;;;;0.70;0.50;;;;;;;;;;10251033;28;19930;-49
2022/07/10 11:19:08;;;;;;;0.80;0.60;;;;;;;;;;10263553;28;20047;-49
2022/07/10 11:24:38;;;;;;;0.70;0.60;;;;;;;;;;10250462;28;20094;-49
2022/07/10 11:29:58;;;;;;;0.70;0.52;;;;;;;;;;10250407;28;20062;-49
2022/07/10 11:35:18;;;;;;;0.43;0.43;;;;;;;;;;10248987;28;20102;-49
2022/07/10 11:40:37;;;;;;;0.40;0.40;;;;;;;;;;10263006;28;20047;-49
2022/07/10 11:46:00;;;;;;;0.50;0.50;;;;;;;;;;10242658;29;20059;-49
2022/07/10 11:51:24;;;;;;;0.85;0.50;;;;;;;;;;10249199;28;20106;-49
2022/07/10 11:56:48;;;;;;;1.10;0.60;;;;;;;;;;10253042;28;20059;-49
2022/07/10 12:02:07;;;;;;;0.50;0.50;;;;;;;;;;10249480;29;20512;-49
2022/07/10 12:07:26;;;;;;;1.23;0.50;;;;;;;;;;10262154;28;20601;-50
2022/07/10 12:12:46;;;;;;;1.23;0.65;;;;;;;;;;10261340;28;20051;-49
2022/07/10 12:18:06;;;;;;;0.45;0.40;;;;;;;;;;10248699;28;20446;-49
2022/07/10 12:23:25;;;;;;;0.57;0.50;;;;;;;;;;10248434;28;20051;-49
2022/07/10 12:28:51;;;;;;;0.60;0.50;;;;;;;;;;10247691;29;20055;-50
2022/07/10 12:34:11;;;;;;;0.47;0.47;;;;;;;;;;10248152;28;20065;-49
2022/07/10 12:39:31;;;;;;;1.45;0.50;;;;;;;;;;10234851;28;20055;-49
2022/07/10 12:44:50;;;;;;;0.40;0.40;;;;;;;;;;10247743;28;20070;-49
2022/07/10 12:50:09;;;;;;;0.45;0.45;;;;;;;;;;10247657;28;20058;-50
2022/07/10 12:55:34;;;;;;;0.50;0.50;;;;;;;;;;10247299;28;20086;-49
2022/07/10 13:00:54;;;;;;;1.35;0.40;;;;;;;;;;10246268;28;20062;-49
2022/07/10 13:06:29;;;;;;;1.20;0.50;;;;;;;;;;10240074;28;20495;-49
2022/07/10 13:11:49;;;;;;;0.52;0.50;;;;;;;;;;10243554;28;20043;-49
2022/07/10 13:17:08;;;;;;;0.75;0.60;;;;;;;;;;10248345;29;20047;-50
2022/07/10 13:22:28;;;;;;;0.60;0.60;;;;;;;;;;10262664;28;20046;-49
2022/07/10 13:27:48;;;;;;;0.90;0.70;;;;;;;;;;10247285;28;20051;-49
2022/07/10 13:33:07;;;;;;;1.70;0.60;;;;;;;;;;10242501;28;20081;-49
2022/07/10 13:38:26;;;;;;;0.55;0.55;;;;;;;;;;10250019;28;20044;-50
2022/07/10 13:43:45;;;;;;;2.83;0.70;;;;;;;;;;10244513;28;20054;-49
2022/07/10 13:49:05;;;;;;;1.02;0.70;;;;;;;;;;10253320;28;20043;-49
2022/07/10 13:54:25;;;;;;;0.90;0.70;;;;;;;;;;10253588;29;20062;-50
2022/07/10 13:59:45;;;;;;;1.52;0.73;;;;;;;;;;10242215;28;20525;-51
2022/07/10 14:45:13;;;;;;;4.88;1.00;;;;;;;19.19;49.90;97235.44;10627499;27;20318;-51
2022/07/10 14:50:33;;;;;;;2.53;0.90;;;;;;;19.29;50.60;97226.25;10600391;28;20050;-51
2022/07/10 15:08:51;;;;;;;3.40;0.90;;;;;;;19.41;50.80;97228.34;10384356;28;20038;-93
2022/07/10 15:14:10;;;;;;;3.55;1.10;;;;;;;19.42;51.14;97232.63;10312585;28;20054;-56
2022/07/10 15:19:30;;;;;;;2.17;0.80;;;;;;;19.44;51.47;97236.63;10316625;28;20047;-48
2022/07/10 15:24:50;;;;;;;1.85;0.88;;;;;;;19.45;51.73;97222.00;10331779;28;20464;-50
2022/07/10 15:30:14;;;;;;;4.32;1.00;;;;;;;19.42;49.82;97217.22;10329717;28;20060;-51
2022/07/10 15:35:33;;;;;;;1.92;0.90;;;;;;;19.43;51.19;97232.34;10308694;28;20059;-52
2022/07/10 15:40:53;;;;;;;1.50;0.90;;;;;;;19.43;51.28;97212.63;10324662;28;20494;-51
2022/07/10 15:46:14;;;;;;;7.45;1.20;;;;;;;19.43;51.67;97218.81;10263250;28;20439;-51
2022/07/10 15:51:33;;;;;;;1.88;1.05;;;;;;;19.44;51.77;97217.69;10280951;28;20062;-51
2022/07/10 15:56:53;;;;;;;4.60;1.00;;;;;;;19.44;52.10;97216.91;10291714;28;20062;-51
2022/07/10 16:02:13;;;;;;;4.50;1.10;;;;;;;19.45;52.16;97216.59;10275666;28;20067;-51
2022/07/10 16:19:16;;;;;;;4.68;1.27;;;;;;;19.46;52.44;97226.28;10508583;27;20435;-49
2022/07/10 16:25:56;;;;;;;3.05;1.35;;;;;;;19.46;52.51;97220.88;10484918;28;20055;-50
2022/07/10 16:30:15;;;;;;;2.78;1.35;;;;;;;19.47;52.63;97230.59;10467600;28;20049;-51
2022/07/10 16:35:34;;;;;;;5.97;1.15;;;;;;;19.47;52.35;97236.00;10485464;28;20045;-49
2022/07/10 16:40:54;;;;;;;2.47;1.17;;;;;;;19.46;52.80;97229.00;10484382;28;20060;-52
2022/07/10 16:46:13;;;;;;;2.55;1.05;;;;;;;19.48;52.98;97224.09;10498713;28;20110;-51
2022/07/10 16:51:33;;;;;;;3.25;0.95;;;;;;;19.49;53.00;97225.66;10484464;28;20048;-49
2022/07/10 16:56:52;;;;;;;2.72;0.95;;;;;;;19.50;53.11;97232.69;10499478;28;20095;-49
2022/07/10 17:02:12;;;;;;;7.95;1.20;;;;;;;19.52;53.40;97224.25;10492254;28;20037;-49
2022/07/10 17:07:32;;;;;;;7.03;1.25;;;;;;;19.54;53.60;97222.03;10481012;28;20052;-55
2022/07/10 17:12:52;;;;;;;3.03;1.08;;;;;;;19.55;53.72;97221.72;10471708;28;20053;-50
2022/07/10 17:18:11;;;;;;;3.83;1.00;;;;;;;19.53;53.25;97226.63;10474603;28;20045;-51
2022/07/10 17:23:30;;;;;;;2.78;1.10;;;;;;;19.52;53.60;97219.66;10475800;28;20063;-51
2022/07/10 17:28:49;;;;;;;3.97;1.10;;;;;;;19.53;53.67;97221.22;10454064;28;20049;-50
2022/07/10 17:34:09;;;;;;;5.30;1.10;;;;;;;19.49;51.02;97231.06;10465793;28;20108;-49
2022/07/10 17:39:29;;;;;;;2.47;1.00;;;;;;;19.45;50.32;97230.13;10445314;28;20606;-50
2022/07/10 17:44:48;;;;;;;3.67;1.10;;;;;;;19.45;51.50;97229.31;10458109;28;20045;-52
2022/07/10 17:50:08;;;;;;;2.63;0.90;;;;;;;19.46;52.15;97231.69;10452412;28;20045;-51
2022/07/10 17:55:28;;;;;;;1.73;1.10;;;;;;;19.46;52.56;97231.69;10462294;28;20052;-52
2022/07/10 18:00:47;;;;;;;3.53;1.00;;;;;;;19.47;52.88;97238.69;10449806;28;20052;-51
2022/07/10 18:06:07;;;;;;;4.65;1.30;;;;;;;19.47;52.99;97237.91;10438002;28;20102;-52
2022/07/10 18:11:27;;;;;;;3.20;0.98;;;;;;;19.46;53.21;97242.50;10443388;28;20103;-52
2022/07/10 18:16:46;;;;;;;2.33;1.17;;;;;;;19.47;53.21;97246.03;10456893;28;20044;-51
2022/07/10 18:22:08;;;;;;;2.58;0.95;;;;;;;19.46;53.21;97239.78;10464999;28;20036;-52
2022/07/10 18:27:27;;;;;;;2.67;0.98;;;;;;;19.47;53.31;97244.09;10447714;28;20050;-50
2022/07/10 18:38:25;;;;;;;2.17;1.00;;;;;;;19.47;53.52;97244.09;10436899;28;20048;-51
2022/07/10 18:43:44;;;;;;;2.13;1.20;;;;;;;19.47;53.71;97237.91;10446984;28;20115;-49
2022/07/10 18:49:04;;;;;;;7.63;1.15;;;;;;;19.47;53.66;97238.69;10433663;28;20053;-50
2022/07/10 18:54:23;;;;;;;2.80;0.93;;;;;;;19.46;53.85;97242.50;10435338;28;20504;-51
2022/07/10 18:59:44;;;;;;;2.70;1.33;;;;;;;19.46;53.95;97247.91;10429150;28;20064;-51
2022/07/10 19:05:05;;;;;;;2.10;1.00;;;;;;;19.46;54.12;97250.59;10432458;28;20048;-50
2022/07/10 19:10:25;;;;;;;4.65;1.13;;;;;;;19.46;54.13;97252.53;10414422;28;20049;-52
2022/07/10 19:15:44;;;;;;;1.80;0.90;;;;;;;19.47;54.23;97262.22;10428944;28;20053;-51
2022/07/10 19:21:04;;;;;;;1.95;1.00;;;;;;;19.46;54.14;97268.72;10429840;28;20052;-52
2022/07/10 19:26:24;;;;;;;2.22;1.27;;;;;;;19.45;54.27;97267.94;10432831;28;20044;-51
2022/07/10 19:31:44;;;;;;;1.27;0.82;;;;;;;19.45;54.23;97267.94;10438173;28;20049;-51
2022/07/10 19:37:05;;;;;;;1.45;0.90;;;;;;;19.45;54.40;97273.34;10457688;28;20041;-50
2022/07/10 19:42:25;;;;;;;4.05;1.35;;;;;;;19.44;54.47;97271.75;10425914;28;20049;-51
2022/07/10 19:47:45;;;;;;;1.52;0.90;;;;;;;19.46;54.67;97274.13;10434441;28;20056;-51
2022/07/10 19:53:06;;;;;;;1.80;0.90;;;;;;;19.48;54.85;97280.84;10452830;28;20044;-51
2022/07/10 19:58:26;;;;;;;1.38;0.88;;;;;;;19.47;54.92;97281.16;10430536;28;20045;-50
2022/07/10 20:03:45;;;;;;;2.05;0.93;;;;;;;19.48;55.20;97294.34;10436461;28;20049;-48
2022/07/10 20:09:05;;;;;;;1.23;0.77;;;;;;;19.47;54.67;97281.16;10437629;28;20053;-49
2022/07/10 20:14:27;;;;;;;2.10;0.95;;;;;;;19.46;55.10;97285.72;10443744;28;20044;-50
2022/07/10 20:19:47;;;;;;;2.70;0.80;;;;;;;19.47;55.22;97281.94;10445137;28;20411;-50
2022/07/10 20:25:07;;;;;;;1.67;0.93;;;;;;;19.50;55.46;97280.50;10451748;28;20052;-51
2022/07/10 20:30:27;;;;;;;2.00;0.90;;;;;;;19.48;55.23;97278.13;10442373;28;20053;-48
2022/07/10 20:37:38;;;;;;;1.58;0.88;;;;;;;19.47;55.09;97275.75;10445601;28;20060;-51
2022/07/10 20:41:25;;;;;;;1.67;0.85;;;;;;;19.46;55.04;97279.53;10450267;28;20091;-51
2022/07/10 20:46:45;;;;;;;1.50;1.00;;;;;;;19.46;54.98;97276.84;10438818;28;20419;-51
2022/07/10 20:52:05;;;;;;;2.20;0.70;;;;;;;19.44;54.90;97274.44;10440026;28;20049;-51
2022/07/10 20:57:25;;;;;;;1.77;0.93;;;;;;;19.44;54.86;97285.25;10432978;28;20380;-51
2022/07/10 21:02:45;;;;;;;2.05;1.05;;;;;;;19.46;55.12;97284.94;10440664;28;20045;-49
2022/07/10 21:08:05;;;;;;;1.10;0.90;;;;;;;19.46;55.13;97274.13;10433421;28;20126;-51
2022/07/10 21:13:27;;;;;;;1.45;0.90;;;;;;;19.45;55.16;97273.34;10436336;28;20049;-51
2022/07/10 21:18:46;;;;;;;2.03;0.82;;;;;;;19.47;55.31;97275.75;10431807;28;20045;-51
2022/07/10 21:24:06;;;;;;;1.25;0.80;;;;;;;19.46;55.28;97271.44;10414606;28;20395;-52
2022/07/10 21:29:25;;;;;;;1.52;1.00;;;;;;;19.46;55.23;97266.81;10444679;28;20175;-51
2022/07/10 21:34:45;;;;;;;1.00;0.80;;;;;;;19.46;55.36;97269.53;10418495;28;20105;-50
2022/07/10 21:40:05;;;;;;;1.90;0.80;;;;;;;19.46;55.14;97263.31;10430551;28;20067;-51
2022/07/10 21:45:24;;;;;;;0.93;0.80;;;;;;;19.46;55.29;97258.72;10429763;28;20053;-51
2022/07/10 21:50:43;;;;;;;0.93;0.80;;;;;;;19.45;55.25;97257.13;10439823;28;20053;-51
2022/07/10 21:56:03;;;;;;;1.70;0.85;;;;;;;19.45;55.24;97267.16;10397494;28;20436;-51
2022/07/10 22:01:23;;;;;;;0.73;0.70;;;;;;;19.45;55.18;97265.25;10412278;28;20054;-50
2022/07/10 22:06:42;;;;;;;1.13;0.65;;;;;;;19.45;55.29;97270.66;10412412;28;20448;-49
2022/07/10 22:12:01;;;;;;;1.08;0.70;;;;;;;19.44;55.22;97265.53;10411965;28;20111;-50
2022/07/10 22:17:20;;;;;;;1.10;0.60;;;;;;;19.45;55.24;97265.25;10411255;28;20057;-50
2022/07/10 22:22:40;;;;;;;9.02;2.00;;;;;;;19.44;55.21;97270.94;10411101;28;20495;-51
2022/07/10 22:28:00;;;;;;;1.13;0.90;;;;;;;19.44;55.27;97265.53;10451018;28;20048;-49
2022/07/10 22:33:19;;;;;;;0.77;0.68;;;;;;;19.43;55.32;97272.88;10452286;28;20064;-49
2022/07/10 22:38:39;;;;;;;0.90;0.65;;;;;;;19.43;55.40;97263.97;10451595;28;20048;-51
2022/07/10 22:43:59;;;;;;;0.60;0.60;;;;;;;19.43;55.20;97263.97;10451771;28;20053;-52
2022/07/10 22:49:18;;;;;;;1.25;0.70;;;;;;;19.44;55.11;97260.13;10451784;28;20091;-49
2022/07/10 22:54:37;;;;;;;0.90;0.80;;;;;;;19.42;55.14;97268.56;10424129;28;20057;-51
2022/07/10 22:59:56;;;;;;;1.10;0.80;;;;;;;19.43;55.19;97274.78;10410029;28;20053;-50
2022/07/10 23:05:16;;;;;;;0.80;0.70;;;;;;;19.41;55.21;97261.56;10409895;28;20049;-52
2022/07/10 23:10:36;;;;;;;0.70;0.60;;;;;;;19.43;55.21;97263.97;10409727;28;20068;-51
2022/07/10 23:15:55;;;;;;;0.93;0.75;;;;;;;19.41;55.11;97264.28;10417972;28;20053;-49
2022/07/10 23:21:15;;;;;;;1.52;0.80;;;;;;;19.41;55.19;97253.47;10408914;28;20129;-51
2022/07/10 23:26:36;;;;;;;1.02;0.75;;;;;;;19.41;55.16;97258.88;10436803;28;20053;-51
2022/07/10 23:31:56;;;;;;;1.00;0.80;;;;;;;19.42;55.08;97255.03;10463586;28;20452;-50
2022/07/10 23:37:16;;;;;;;1.23;0.60;;;;;;;19.41;55.13;97248.06;10463203;28;20037;-49
2022/07/10 23:42:35;;;;;;;0.60;0.52;;;;;;;19.42;54.98;97246.16;10455917;28;20044;-49
2022/07/10 23:47:55;;;;;;;1.70;0.80;;;;;;;19.41;55.03;97249.97;10447832;28;20052;-50
2022/07/10 23:53:15;;;;;;;0.98;0.70;;;;;;;19.40;55.08;97249.16;10462105;28;20087;-51
2022/07/10 23:58:34;;;;;;;0.65;0.60;;;;;;;19.41;55.01;97252.69;10462472;28;20052;-49
